createdAt,value
2022-08-22T00:01:12.085Z,99107.53
2022-08-22T00:02:53.912Z,99098.69
2022-08-22T00:03:09.033Z,99107.16
2022-08-22T00:03:11.262Z,99113.00
2022-08-22T00:03:49.524Z,99106.91
2022-08-22T00:06:25.156Z,99113.22
2022-08-22T00:09:02.931Z,99120.63
2022-08-22T00:11:43.282Z,99115.41
2022-08-22T00:14:20.850Z,99115.41
2022-08-22T00:16:58.095Z,99117.81
2022-08-22T00:19:32.207Z,99112.50
2022-08-22T00:22:04.262Z,99119.50
2022-08-22T00:24:38.543Z,99118.53
2022-08-22T00:27:11.688Z,99118.06
2022-08-22T00:29:47.036Z,99115.19
2022-08-22T00:32:20.498Z,99116.41
2022-08-22T00:34:57.034Z,99117.63
2022-08-22T00:37:31.645Z,99114.25
2022-08-22T00:40:04.568Z,99115.09
2022-08-22T00:43:08.394Z,99117.84
2022-08-22T00:46:03.961Z,99114.25
2022-08-22T00:49:03.604Z,99111.09
2022-08-22T00:52:18.656Z,99112.31
2022-08-22T00:55:04.468Z,99108.22
2022-08-22T00:57:52.625Z,99108.31
2022-08-22T01:00:22.977Z,99099.50
2022-08-22T01:03:06.326Z,99103.84
2022-08-22T01:05:48.993Z,99106.50
2022-08-22T01:08:37.151Z,99099.50
2022-08-22T01:11:22.618Z,99101.31
2022-08-22T01:14:21.022Z,99100.34
2022-08-22T01:17:39.132Z,99095.16
2022-08-22T01:20:44.604Z,99093.56
2022-08-22T01:23:47.855Z,99092.72
2022-08-22T01:26:44.704Z,99093.56
2022-08-22T01:29:47.883Z,99084.63
2022-08-22T01:32:42.890Z,99092.50
2022-08-22T01:35:21.287Z,99094.63
2022-08-22T01:38:12.803Z,99101.06
2022-08-22T01:41:20.996Z,99096.81
2022-08-22T01:44:03.631Z,99099.59
2022-08-22T01:46:44.625Z,99099.25
2022-08-22T01:49:18.812Z,99097.69
2022-08-22T01:51:54.716Z,99106.03
2022-08-22T01:54:35.782Z,99103.97
2022-08-22T01:57:07.762Z,99103.25
2022-08-22T01:59:42.455Z,99104.47
2022-08-22T02:02:25.057Z,99105.56
2022-08-22T02:04:59.120Z,99103.38
2022-08-22T02:07:35.129Z,99109.16
2022-08-22T02:10:12.621Z,99108.53
2022-08-22T02:12:46.567Z,99099.22
2022-08-22T02:15:20.280Z,99103.13
2022-08-22T02:17:56.559Z,99098.75
2022-08-22T02:20:34.168Z,99099.72
2022-08-22T02:23:10.257Z,99096.47
2022-08-22T02:25:51.830Z,99092.22
2022-08-22T02:28:34.044Z,99096.94
2022-08-22T02:31:07.173Z,99096.19
2022-08-22T02:33:43.697Z,99096.44
2022-08-22T02:36:19.766Z,99099.09
2022-08-22T02:38:58.790Z,99097.28
2022-08-22T02:41:32.226Z,99099.94
2022-08-22T02:44:04.379Z,99095.59
2022-08-22T02:46:46.921Z,99092.94
2022-08-22T02:49:21.598Z,99096.44
2022-08-22T02:51:56.624Z,99101.88
2022-08-22T02:54:31.391Z,99098.38
2022-08-22T02:57:06.641Z,99094.97
2022-08-22T03:00:04.305Z,99095.22
2022-08-22T03:02:38.857Z,99100.66
2022-08-22T03:05:24.463Z,99103.66
2022-08-22T03:08:08.160Z,99098.56
2022-08-22T03:10:43.816Z,99106.53
2022-08-22T03:13:14.606Z,99110.53
2022-08-22T03:15:49.978Z,99107.22
2022-08-22T03:18:23.825Z,99106.56
2022-08-22T03:20:59.036Z,99114.53
2022-08-22T03:23:43.273Z,99111.28
2022-08-22T03:26:18.307Z,99113.31
2022-08-22T03:28:59.009Z,99105.34
2022-08-22T03:31:29.994Z,99108.13
2022-08-22T03:34:20.288Z,99106.56
2022-08-22T03:36:57.819Z,99106.78
2022-08-22T03:39:43.856Z,99111.34
2022-08-22T03:42:26.168Z,99112.31
2022-08-22T03:45:16.098Z,99112.66
2022-08-22T03:48:18.294Z,99120.75
2022-08-22T03:51:01.667Z,99118.41
2022-08-22T03:53:47.258Z,99119.00
2022-08-22T03:56:41.735Z,99115.63
2022-08-22T03:59:51.725Z,99119.31
2022-08-22T04:02:43.101Z,99116.78
2022-08-22T04:05:40.767Z,99121.97
2022-08-22T04:08:44.865Z,99121.00
2022-08-22T04:11:54.265Z,99133.34
2022-08-22T04:14:41.605Z,99121.00
2022-08-22T04:17:44.280Z,99129.09
2022-08-22T04:20:25.037Z,99137.06
2022-08-22T04:23:25.196Z,99127.41
2022-08-22T04:25:57.336Z,99124.63
2022-08-22T04:28:31.547Z,99135.25
2022-08-22T04:31:07.445Z,99134.41
2022-08-22T04:33:42.139Z,99136.09
2022-08-22T04:36:17.667Z,99143.00
2022-08-22T04:38:49.421Z,99133.94
2022-08-22T04:41:24.441Z,99146.91
2022-08-22T04:43:59.496Z,99140.50
2022-08-22T04:46:36.933Z,99139.22
2022-08-22T04:49:11.721Z,99155.00
2022-08-22T04:51:46.155Z,99155.81
2022-08-22T04:54:38.488Z,99158.81
2022-08-22T04:57:20.083Z,99170.03
2022-08-22T04:59:48.321Z,99168.75
2022-08-22T05:02:24.833Z,99162.13
2022-08-22T05:05:01.621Z,99174.13
2022-08-22T05:07:35.983Z,99163.16
2022-08-22T05:10:12.197Z,99164.16
2022-08-22T05:12:43.809Z,99166.19
2022-08-22T05:15:23.571Z,99168.88
2022-08-22T05:17:56.911Z,99172.53
2022-08-22T05:20:27.075Z,99173.41
2022-08-22T05:22:58.663Z,99168.13
2022-08-22T05:25:30.748Z,99177.81
2022-08-22T05:28:10.612Z,99176.38
2022-08-22T05:30:39.321Z,99182.56
2022-08-22T05:33:17.402Z,99184.50
2022-08-22T05:35:53.442Z,99185.47
2022-08-22T05:38:29.987Z,99194.09
2022-08-22T05:41:02.767Z,99199.28
2022-08-22T05:43:30.402Z,99198.06
2022-08-22T05:46:00.226Z,99199.25
2022-08-22T05:48:38.608Z,99194.91
2022-08-22T05:51:16.825Z,99196.00
2022-08-22T05:53:50.371Z,99196.88
2022-08-22T05:56:27.327Z,99193.03
2022-08-22T05:59:01.591Z,99190.59
2022-08-22T06:01:35.398Z,99200.56
2022-08-22T06:04:09.335Z,99203.94
2022-08-22T06:06:42.483Z,99191.56
2022-08-22T06:09:19.005Z,99196.13
2022-08-22T06:11:52.494Z,99197.34
2022-08-22T06:14:29.739Z,99196.78
2022-08-22T06:17:03.775Z,99194.63
2022-08-22T06:19:36.273Z,99185.81
2022-08-22T06:22:05.970Z,99190.28
2022-08-22T06:24:38.095Z,99196.84
2022-08-22T06:27:09.813Z,99189.91
2022-08-22T06:29:42.502Z,99188.69
2022-08-22T06:32:14.233Z,99194.41
2022-08-22T06:34:46.718Z,99199.13
2022-08-22T06:37:24.428Z,99199.66
2022-08-22T06:39:55.014Z,99196.53
2022-08-22T06:42:26.159Z,99192.91
2022-08-22T06:44:58.371Z,99190.03
2022-08-22T06:47:29.744Z,99185.34
2022-08-22T06:50:13.793Z,99185.16
2022-08-22T06:52:53.227Z,99188.34
2022-08-22T06:55:22.810Z,99190.13
2022-08-22T06:57:55.705Z,99189.63
2022-08-22T07:00:24.412Z,99189.19
2022-08-22T07:02:58.146Z,99187.03
2022-08-22T07:05:29.513Z,99187.50
2022-08-22T07:07:58.044Z,99191.63
2022-08-22T07:10:26.300Z,99185.16
2022-08-22T07:12:57.370Z,99189.66
2022-08-22T07:15:33.984Z,99193.56
2022-08-22T07:18:04.355Z,99189.03
2022-08-22T07:20:38.614Z,99198.38
2022-08-22T07:23:09.348Z,99187.31
2022-08-22T07:25:54.269Z,99181.88
2022-08-22T07:28:51.259Z,99182.25
2022-08-22T07:31:35.485Z,99186.38
2022-08-22T07:34:18.950Z,99187.72
2022-08-22T07:36:51.531Z,99188.16
2022-08-22T07:39:26.533Z,99185.91
2022-08-22T07:42:07.901Z,99189.69
2022-08-22T07:44:43.391Z,99189.00
2022-08-22T07:47:16.355Z,99186.09
2022-08-22T07:49:53.937Z,99188.25
2022-08-22T07:52:24.719Z,99185.94
2022-08-22T07:54:57.786Z,99189.47
2022-08-22T07:57:32.602Z,99184.47
2022-08-22T08:00:02.918Z,99178.78
2022-08-22T08:02:30.916Z,99180.38
2022-08-22T08:05:01.255Z,99184.91
2022-08-22T08:07:32.201Z,99174.91
2022-08-22T08:10:07.956Z,99180.09
2022-08-22T08:12:45.047Z,99178.41
2022-08-22T08:15:26.901Z,99179.50
2022-08-22T08:17:59.787Z,99177.22
2022-08-22T08:20:29.509Z,99185.09
2022-08-22T08:23:00.194Z,99182.88
2022-08-22T08:25:30.310Z,99184.44
2022-08-22T08:28:17.083Z,99180.88
2022-08-22T08:30:48.210Z,99184.41
2022-08-22T08:33:26.366Z,99174.72
2022-08-22T08:36:04.767Z,99183.00
2022-08-22T08:38:41.040Z,99180.13
2022-08-22T08:41:31.396Z,99172.09
2022-08-22T08:44:06.905Z,99179.28
2022-08-22T08:46:55.901Z,99175.75
2022-08-22T08:49:42.154Z,99171.91
2022-08-22T08:52:28.713Z,99178.34
2022-08-22T08:55:22.033Z,99170.47
2022-08-22T08:58:10.235Z,99166.16
2022-08-22T09:00:52.136Z,99178.88
2022-08-22T09:03:44.439Z,99170.69
2022-08-22T09:06:37.696Z,99176.03
2022-08-22T09:09:29.616Z,99180.31
2022-08-22T09:12:20.151Z,99177.06
2022-08-22T09:18:29.001Z,99174.19
2022-08-22T09:24:52.406Z,99177.16
2022-08-22T09:27:32.866Z,99177.81
2022-08-22T09:33:00.993Z,99179.34
2022-08-22T09:35:37.621Z,99181.31
2022-08-22T09:38:30.489Z,99176.28
2022-08-22T09:40:15.957Z,99180.03
2022-08-22T09:41:07.612Z,99174.09
2022-08-22T09:43:41.871Z,99167.69
2022-08-22T09:46:20.513Z,99184.75
2022-08-22T09:49:01.157Z,99172.53
2022-08-22T09:51:39.610Z,99169.94
2022-08-22T09:54:34.147Z,99167.78
2022-08-22T09:57:15.763Z,99152.88
2022-08-22T10:00:02.611Z,99152.75
2022-08-22T10:02:43.594Z,99160.69
2022-08-22T10:05:40.981Z,99154.50
2022-08-22T10:08:26.356Z,99164.88
2022-08-22T10:11:25.966Z,99166.63
2022-08-22T10:14:02.475Z,99159.91
2022-08-22T10:16:52.968Z,99164.94
2022-08-22T10:19:27.383Z,99162.13
2022-08-22T10:22:20.095Z,99150.44
2022-08-22T10:24:55.369Z,99155.81
2022-08-22T10:27:52.144Z,99148.53
2022-08-22T10:30:22.841Z,99150.75
2022-08-22T10:33:00.168Z,99151.47
2022-08-22T10:35:34.026Z,99144.47
2022-08-22T10:38:10.613Z,99149.22
2022-08-22T10:40:43.317Z,99142.44
2022-08-22T10:43:15.566Z,99139.81
2022-08-22T10:45:47.783Z,99134.97
2022-08-22T10:48:35.092Z,99126.22
2022-08-22T10:51:15.139Z,99134.06
2022-08-22T10:53:58.582Z,99132.59
2022-08-22T10:56:33.973Z,99138.97
2022-08-22T10:59:13.684Z,99132.50
2022-08-22T11:01:50.023Z,99127.38
2022-08-22T11:04:31.804Z,99125.84
2022-08-22T11:07:14.616Z,99129.63
2022-08-22T11:09:44.404Z,99119.63
2022-08-22T11:12:23.320Z,99121.72
2022-08-22T11:15:12.047Z,99109.31
2022-08-22T11:18:22.361Z,99108.47
2022-08-22T11:21:00.357Z,99100.63
2022-08-22T11:23:40.605Z,99102.53
2022-08-22T11:26:23.060Z,99097.50
2022-08-22T11:29:22.826Z,99098.56
2022-08-22T11:32:01.435Z,99108.81
2022-08-22T11:34:52.524Z,99096.06
2022-08-22T11:37:43.316Z,99096.25
2022-08-22T11:40:23.298Z,99103.38
2022-08-22T11:43:03.131Z,99103.75
2022-08-22T11:45:40.401Z,99102.84
2022-08-22T11:48:18.720Z,99092.78
2022-08-22T11:50:52.369Z,99097.03
2022-08-22T11:53:28.292Z,99099.81
2022-08-22T11:56:08.651Z,99094.38
2022-08-22T11:58:51.467Z,99103.69
2022-08-22T12:01:23.720Z,99095.34
2022-08-22T12:04:03.388Z,99087.63
2022-08-22T12:06:56.870Z,99085.91
2022-08-22T12:09:35.869Z,99085.69
2022-08-22T12:12:32.424Z,99088.88
2022-08-22T12:15:08.971Z,99090.13
2022-08-22T12:18:01.890Z,99089.47
2022-08-22T12:20:52.396Z,99080.69
2022-08-22T12:23:43.610Z,99084.41
2022-08-22T12:26:28.960Z,99082.13
2022-08-22T12:29:23.324Z,99077.72
2022-08-22T12:32:44.019Z,99086.28
2022-08-22T12:35:30.530Z,99075.50
2022-08-22T12:38:26.621Z,99059.25
2022-08-22T12:41:13.835Z,99061.19
2022-08-22T12:44:06.635Z,99060.59
2022-08-22T12:46:48.240Z,99059.06
2022-08-22T12:49:31.794Z,99057.69
2022-08-22T12:52:16.765Z,99067.19
2022-08-22T12:55:09.576Z,99059.66
2022-08-22T12:57:45.571Z,99056.75
2022-08-22T13:00:30.209Z,99058.56
2022-08-22T13:03:03.112Z,99063.50
2022-08-22T13:05:40.960Z,99056.03
2022-08-22T13:08:13.284Z,99051.16
2022-08-22T13:10:47.403Z,99050.69
2022-08-22T13:13:31.753Z,99051.97
2022-08-22T13:16:09.532Z,99053.22
2022-08-22T13:18:47.579Z,99045.78
2022-08-22T13:21:28.849Z,99056.72
2022-08-22T13:24:10.612Z,99047.13
2022-08-22T13:26:49.219Z,99061.03
2022-08-22T13:29:26.081Z,99057.44
2022-08-22T13:32:01.980Z,99046.13
2022-08-22T13:34:39.808Z,99043.72
2022-08-22T13:37:12.561Z,99042.03
2022-08-22T13:39:44.755Z,99035.41
2022-08-22T13:42:20.183Z,99047.34
2022-08-22T13:44:59.511Z,99040.94
2022-08-22T13:47:34.549Z,99044.44
2022-08-22T13:50:11.148Z,99048.03
2022-08-22T13:52:52.215Z,99034.50
2022-08-22T13:55:30.015Z,99036.63
2022-08-22T13:58:02.405Z,99039.28
2022-08-22T14:01:07.284Z,99030.91
2022-08-22T14:03:42.973Z,99037.75
2022-08-22T14:06:36.950Z,99038.84
2022-08-22T14:09:15.037Z,99032.38
2022-08-22T14:11:49.381Z,99043.22
2022-08-22T14:14:25.116Z,99039.41
2022-08-22T14:16:55.911Z,99034.25
2022-08-22T14:19:35.040Z,99036.69
2022-08-22T14:22:32.003Z,99032.88
2022-08-22T14:25:07.248Z,99025.06
2022-08-22T14:27:39.881Z,99023.22
2022-08-22T14:30:16.079Z,99031.28
2022-08-22T14:32:48.977Z,99034.13
2022-08-22T14:35:35.083Z,99037.25
2022-08-22T14:38:17.484Z,99029.84
2022-08-22T14:40:46.329Z,99028.97
2022-08-22T14:43:22.434Z,99032.41
2022-08-22T14:45:57.194Z,99045.00
2022-08-22T14:48:40.561Z,99041.66
2022-08-22T14:51:18.363Z,99040.34
2022-08-22T14:53:49.981Z,99040.75
2022-08-22T14:56:22.583Z,99031.94
2022-08-22T14:58:54.412Z,99018.44
2022-08-22T15:01:25.350Z,99033.25
2022-08-22T15:03:57.517Z,99025.84
2022-08-22T15:06:36.728Z,99027.59
2022-08-22T15:09:08.403Z,99035.13
2022-08-22T15:11:42.189Z,99031.47
2022-08-22T15:14:21.807Z,99034.59
2022-08-22T15:16:56.049Z,99038.84
2022-08-22T15:19:28.579Z,99029.84
2022-08-22T15:22:15.833Z,99033.22
2022-08-22T15:24:48.429Z,99030.38
2022-08-22T15:27:19.829Z,99030.41
2022-08-22T15:29:51.506Z,99033.19
2022-08-22T15:32:22.667Z,99032.81
2022-08-22T15:35:03.239Z,99030.13
2022-08-22T15:37:34.895Z,99023.50
2022-08-22T15:40:12.040Z,99024.41
2022-08-22T15:42:44.791Z,99018.84
2022-08-22T15:45:22.310Z,99017.72
2022-08-22T15:47:53.060Z,99015.28
2022-08-22T15:50:31.856Z,99015.50
2022-08-22T15:53:16.022Z,99013.88
2022-08-22T15:56:19.901Z,99012.84
2022-08-22T15:58:50.629Z,99021.44
2022-08-22T16:01:22.346Z,99010.91
2022-08-22T16:03:57.174Z,99009.13
2022-08-22T16:06:44.925Z,99009.34
